Kensington, Canada
Current Conditions -  °F | °C
As of 4:00 PM on Thursday 18 Dec 2014 (Local Time) from CYYG Reporting Station
Broken Clouds Broken Clouds  
Wind Chill: 33°   Ceiling: 1900
Heat Index: 39°   Visibility: 15mi
Dew Point: 37°   Wind: 9mph
Humidity: 93%   Direction: 190°S
Pressure: 29.34"   Gusts: NA
Location:  46.43°N, 63.65°W
Report Text: CYYG 182000Z 19008KT 15SM FEW011 BKN019 BKN036 04/03 A2934 RMK SC2SC4SC1 SLP937
Loading
Personal Weather Stations






























Interactive Weather Map New forecast layout! Learn more

10-Day Weather Forecast

Advertisements
Track Severe Weather on mobile